createdAt,value
2022-11-14T00:01:20.592Z,98.56
2022-11-14T00:03:50.854Z,97.94
2022-11-14T00:06:21.337Z,98.27
2022-11-14T00:08:48.968Z,98.20
2022-11-14T00:11:16.623Z,97.77
2022-11-14T00:13:46.639Z,97.63
2022-11-14T00:16:14.303Z,97.42
2022-11-14T00:18:41.921Z,97.16
2022-11-14T00:21:10.900Z,97.20
2022-11-14T00:23:39.782Z,97.24
2022-11-14T00:26:08.849Z,97.30
2022-11-14T00:28:37.499Z,97.30
2022-11-14T00:31:05.375Z,97.57
2022-11-14T00:33:34.244Z,97.25
2022-11-14T00:36:02.114Z,97.38
2022-11-14T00:38:29.955Z,97.17
2022-11-14T00:40:59.095Z,97.27
2022-11-14T00:43:26.715Z,97.53
2022-11-14T00:45:59.795Z,97.34
2022-11-14T00:48:31.741Z,97.54
2022-11-14T00:50:59.632Z,97.87
2022-11-14T00:53:27.491Z,97.31
2022-11-14T00:55:55.083Z,97.35
2022-11-14T00:58:24.069Z,97.08
2022-11-14T01:00:55.078Z,97.13
2022-11-14T01:03:33.165Z,97.63
2022-11-14T01:06:05.943Z,96.96
2022-11-14T01:08:33.706Z,96.54
2022-11-14T01:11:02.055Z,96.25
2022-11-14T01:13:34.089Z,96.45
2022-11-14T01:16:02.478Z,96.75
2022-11-14T01:18:30.502Z,96.93
2022-11-14T01:20:58.633Z,96.94
2022-11-14T01:23:26.289Z,97.08
2022-11-14T01:25:53.878Z,96.83
2022-11-14T01:28:21.446Z,97.04
2022-11-14T01:30:50.905Z,96.89
2022-11-14T01:33:19.145Z,96.99
2022-11-14T01:35:46.784Z,96.99
2022-11-14T01:38:16.254Z,96.99
2022-11-14T01:40:45.580Z,96.84
2022-11-14T01:43:27.656Z,96.84
2022-11-14T01:46:00.339Z,96.56
2022-11-14T01:48:34.070Z,96.27
2022-11-14T01:51:09.558Z,96.77
2022-11-14T01:53:37.183Z,96.99
2022-11-14T01:56:08.548Z,97.48
2022-11-14T01:58:42.918Z,97.54
2022-11-14T02:01:12.207Z,97.62
2022-11-14T02:03:43.605Z,97.56
2022-11-14T02:06:16.437Z,97.89
2022-11-14T02:08:45.406Z,97.97
2022-11-14T02:11:13.349Z,98.31
2022-11-14T02:13:41.237Z,98.28
2022-11-14T02:16:09.210Z,98.54
2022-11-14T02:18:38.717Z,98.51
2022-11-14T02:21:07.845Z,98.82
2022-11-14T02:23:35.512Z,98.63
2022-11-14T02:26:03.107Z,98.58
2022-11-14T02:28:31.155Z,99.05
2022-11-14T02:30:58.994Z,99.15
2022-11-14T02:33:26.618Z,99.19
2022-11-14T02:35:54.168Z,99.05
2022-11-14T02:38:23.536Z,99.22
2022-11-14T02:40:51.907Z,98.89
2022-11-14T02:43:19.582Z,99.04
2022-11-14T02:45:48.386Z,98.94
2022-11-14T02:48:16.477Z,98.42
2022-11-14T02:50:44.550Z,98.84
2022-11-14T02:53:12.209Z,98.94
2022-11-14T02:55:42.425Z,98.38
2022-11-14T02:58:12.136Z,98.33
2022-11-14T03:01:05.815Z,98.02
2022-11-14T03:03:28.576Z,98.46
2022-11-14T03:06:00.516Z,98.62
2022-11-14T03:08:28.701Z,98.85
2022-11-14T03:11:05.590Z,98.96
2022-11-14T03:13:34.045Z,98.88
2022-11-14T03:16:06.519Z,99.14
2022-11-14T03:18:34.145Z,99.11
2022-11-14T03:21:07.386Z,99.10
2022-11-14T03:23:35.120Z,99.15
2022-11-14T03:26:08.251Z,99.08
2022-11-14T03:28:37.023Z,99.09
2022-11-14T03:31:05.485Z,99.08
2022-11-14T03:33:33.297Z,98.82
2022-11-14T03:36:00.974Z,99.15
2022-11-14T03:38:31.313Z,98.83
2022-11-14T03:41:00.888Z,98.98
2022-11-14T03:43:32.093Z,98.89
2022-11-14T03:45:59.789Z,98.55
2022-11-14T03:48:28.661Z,97.95
2022-11-14T03:50:56.948Z,98.65
2022-11-14T03:53:24.930Z,97.88
2022-11-14T03:55:52.674Z,98.51
2022-11-14T03:58:20.371Z,98.43
2022-11-14T04:00:49.337Z,98.61
2022-11-14T04:03:16.991Z,98.46
2022-11-14T04:05:45.336Z,98.91
2022-11-14T04:08:13.027Z,98.37
2022-11-14T04:10:41.346Z,98.65
2022-11-14T04:13:09.517Z,98.23
2022-11-14T04:15:37.217Z,98.48
2022-11-14T04:18:06.242Z,98.52
2022-11-14T04:20:33.800Z,98.51
2022-11-14T04:23:01.375Z,98.33
2022-11-14T04:25:28.934Z,98.23
2022-11-14T04:27:56.607Z,98.80
2022-11-14T04:30:24.139Z,98.88
2022-11-14T04:32:51.712Z,99.16
2022-11-14T04:35:20.683Z,99.40
2022-11-14T04:37:48.236Z,98.95
2022-11-14T04:40:16.772Z,99.04
2022-11-14T04:42:44.396Z,98.63
2022-11-14T04:45:12.388Z,98.35
2022-11-14T04:47:40.079Z,98.81
2022-11-14T04:50:08.959Z,98.81
2022-11-14T04:52:38.299Z,98.67
2022-11-14T04:55:06.399Z,98.71
2022-11-14T04:57:34.109Z,99.35
2022-11-14T05:00:01.676Z,99.44
2022-11-14T05:02:34.447Z,99.19
2022-11-14T05:05:02.582Z,99.08
2022-11-14T05:07:30.218Z,98.76
2022-11-14T05:09:59.140Z,98.40
2022-11-14T05:12:26.712Z,98.10
2022-11-14T05:14:54.293Z,96.94
2022-11-14T05:17:21.888Z,95.73
2022-11-14T05:19:49.804Z,95.50
2022-11-14T05:22:17.471Z,95.28
2022-11-14T05:24:45.043Z,94.69
2022-11-14T05:27:14.041Z,94.20
2022-11-14T05:29:41.648Z,94.11
2022-11-14T05:32:12.391Z,93.50
2022-11-14T05:34:43.591Z,92.83
2022-11-14T05:37:11.177Z,92.90
2022-11-14T05:39:38.834Z,92.97
2022-11-14T05:42:06.574Z,92.87
2022-11-14T05:44:35.526Z,92.95
2022-11-14T05:47:03.199Z,92.62
2022-11-14T05:49:31.819Z,92.27
2022-11-14T05:51:59.676Z,91.85
2022-11-14T05:54:27.248Z,91.77
2022-11-14T05:56:54.883Z,92.54
2022-11-14T05:59:23.163Z,93.13
2022-11-14T06:01:59.980Z,93.17
2022-11-14T06:04:28.638Z,93.22
2022-11-14T06:06:56.975Z,93.44
2022-11-14T06:09:24.660Z,93.70
2022-11-14T06:11:52.251Z,93.98
2022-11-14T06:14:19.857Z,94.11
2022-11-14T06:16:47.521Z,94.55
2022-11-14T06:19:16.573Z,94.72
2022-11-14T06:21:44.131Z,95.19
2022-11-14T06:24:11.649Z,95.19
2022-11-14T06:26:40.300Z,95.09
2022-11-14T06:29:08.494Z,95.38
2022-11-14T06:31:38.587Z,95.48
2022-11-14T06:34:06.691Z,95.49
2022-11-14T06:36:35.678Z,95.65
2022-11-14T06:39:03.274Z,95.24
2022-11-14T06:41:30.879Z,95.42
2022-11-14T06:43:58.525Z,95.20
2022-11-14T06:46:26.139Z,95.38
2022-11-14T06:48:53.842Z,94.52
2022-11-14T06:51:21.548Z,94.40
2022-11-14T06:53:50.473Z,94.02
2022-11-14T06:56:20.158Z,94.49
2022-11-14T06:58:50.458Z,94.64
2022-11-14T07:01:20.460Z,94.75
2022-11-14T07:03:48.688Z,94.98
2022-11-14T07:06:21.071Z,94.73
2022-11-14T07:08:50.529Z,94.67
2022-11-14T07:11:24.072Z,94.77
2022-11-14T07:13:52.074Z,95.07
2022-11-14T07:16:27.761Z,95.03
2022-11-14T07:18:55.314Z,94.38
2022-11-14T07:21:23.677Z,94.69
2022-11-14T07:23:53.807Z,95.55
2022-11-14T07:26:24.042Z,95.61
2022-11-14T07:28:56.580Z,95.85
2022-11-14T07:31:27.069Z,96.02
2022-11-14T07:33:57.710Z,96.07
2022-11-14T07:36:25.456Z,96.03
2022-11-14T07:38:54.360Z,95.63
2022-11-14T07:41:21.948Z,95.95
2022-11-14T07:43:49.574Z,96.16
2022-11-14T07:46:19.191Z,95.43
2022-11-14T07:48:46.896Z,95.46
2022-11-14T07:51:16.690Z,94.98
2022-11-14T07:53:44.598Z,94.59
2022-11-14T07:56:17.115Z,95.10
2022-11-14T07:58:44.756Z,95.25
2022-11-14T08:01:14.085Z,94.40
2022-11-14T08:03:46.064Z,94.92
2022-11-14T08:06:15.815Z,94.89
2022-11-14T08:08:43.789Z,94.55
2022-11-14T08:11:15.097Z,94.05
2022-11-14T08:13:51.130Z,94.38
2022-11-14T08:16:18.703Z,94.75
2022-11-14T08:18:46.310Z,94.99
2022-11-14T08:21:14.022Z,94.61
2022-11-14T08:23:41.631Z,93.63
2022-11-14T08:26:10.603Z,93.93
2022-11-14T08:28:39.538Z,94.79
2022-11-14T08:31:07.154Z,94.84
2022-11-14T08:33:34.726Z,94.73
2022-11-14T08:36:02.625Z,94.51
2022-11-14T08:38:32.476Z,94.87
2022-11-14T08:41:00.650Z,94.74
2022-11-14T08:43:28.496Z,95.05
2022-11-14T08:46:01.799Z,95.18
2022-11-14T08:48:31.061Z,94.83
2022-11-14T08:50:59.361Z,94.83
2022-11-14T08:53:27.127Z,95.00
2022-11-14T08:55:54.827Z,95.53
2022-11-14T08:58:22.383Z,95.76
2022-11-14T09:00:51.875Z,95.26
2022-11-14T09:03:21.200Z,95.15
2022-11-14T09:05:52.622Z,95.27
2022-11-14T09:08:20.240Z,95.12
2022-11-14T09:10:47.894Z,94.90
2022-11-14T09:13:18.351Z,94.12
2022-11-14T09:15:47.061Z,94.08
2022-11-14T09:18:16.456Z,93.76
2022-11-14T09:20:45.613Z,92.97
2022-11-14T09:23:13.156Z,90.99
2022-11-14T09:25:40.969Z,89.58
2022-11-14T09:28:09.877Z,88.79
2022-11-14T09:30:38.397Z,87.68
2022-11-14T09:33:11.495Z,88.92
2022-11-14T09:35:39.441Z,89.97
2022-11-14T09:38:10.782Z,88.82
2022-11-14T09:40:52.604Z,88.84
2022-11-14T09:43:36.166Z,88.76
2022-11-14T09:46:04.370Z,88.87
2022-11-14T09:48:32.663Z,89.45
2022-11-14T09:51:08.558Z,88.93
2022-11-14T09:53:43.939Z,88.55
2022-11-14T09:56:14.394Z,87.44
2022-11-14T09:58:43.066Z,85.89
2022-11-14T10:01:18.889Z,86.32
2022-11-14T10:03:52.266Z,86.36
2022-11-14T10:06:30.173Z,85.71
2022-11-14T10:09:16.090Z,86.71
2022-11-14T10:11:51.411Z,86.55
2022-11-14T10:14:54.699Z,86.67
2022-11-14T10:17:46.224Z,86.88
2022-11-14T10:20:21.480Z,85.41
2022-11-14T10:23:01.940Z,85.95
2022-11-14T10:25:44.410Z,84.57
2022-11-14T10:28:43.458Z,83.89
2022-11-14T10:31:24.686Z,83.94
2022-11-14T10:33:58.849Z,83.38
2022-11-14T10:36:40.335Z,83.03
2022-11-14T10:39:17.370Z,82.46
2022-11-14T10:41:59.918Z,83.66
2022-11-14T10:44:36.589Z,84.16
2022-11-14T10:47:11.006Z,84.04
2022-11-14T10:49:39.503Z,82.86
2022-11-14T10:52:12.538Z,82.47
2022-11-14T10:54:46.044Z,81.27
2022-11-14T10:57:20.661Z,81.54
2022-11-14T10:59:48.714Z,81.76
2022-11-14T11:02:16.860Z,81.36
2022-11-14T11:04:46.193Z,80.42
2022-11-14T11:07:51.185Z,79.32
2022-11-14T11:10:41.649Z,77.93
2022-11-14T11:13:15.547Z,78.28
2022-11-14T11:15:43.892Z,78.45
2022-11-14T11:18:27.665Z,78.77
2022-11-14T11:21:08.043Z,78.43
2022-11-14T11:23:37.111Z,78.93
2022-11-14T11:26:08.977Z,79.09
2022-11-14T11:28:38.523Z,78.73
2022-11-14T11:31:07.982Z,78.87
2022-11-14T11:33:36.670Z,78.06
2022-11-14T11:36:08.118Z,78.61
2022-11-14T11:38:39.435Z,79.03
2022-11-14T11:41:33.157Z,78.72
2022-11-14T11:44:16.395Z,78.57
2022-11-14T11:46:51.495Z,78.28
2022-11-14T11:49:25.651Z,79.25
2022-11-14T11:52:00.077Z,79.05
2022-11-14T11:54:31.832Z,79.47
2022-11-14T11:57:11.273Z,79.17
2022-11-14T11:59:46.509Z,79.35
2022-11-14T12:02:24.650Z,78.88
2022-11-14T12:04:56.838Z,78.82
2022-11-14T12:07:36.723Z,78.78
2022-11-14T12:10:12.640Z,78.06
2022-11-14T12:13:00.936Z,77.55
2022-11-14T12:15:40.611Z,77.23
2022-11-14T12:18:24.819Z,77.01
2022-11-14T12:21:04.150Z,76.84
2022-11-14T12:24:22.477Z,76.30
2022-11-14T12:27:07.432Z,77.79
2022-11-14T12:29:58.128Z,77.92
2022-11-14T12:32:32.375Z,78.14
2022-11-14T12:35:04.546Z,78.66
2022-11-14T12:37:35.443Z,78.19
2022-11-14T12:40:06.152Z,78.27
2022-11-14T12:42:34.399Z,78.07
2022-11-14T12:45:02.026Z,78.49
2022-11-14T12:47:31.037Z,77.98
2022-11-14T12:50:31.208Z,78.91
2022-11-14T12:52:58.946Z,78.43
2022-11-14T12:56:02.885Z,78.08
2022-11-14T12:58:58.148Z,78.43
2022-11-14T13:01:40.885Z,78.67
2022-11-14T13:04:20.964Z,78.51
2022-11-14T13:07:01.384Z,78.54
2022-11-14T13:09:34.978Z,78.26
2022-11-14T13:12:44.560Z,78.28
2022-11-14T13:15:48.803Z,78.64
2022-11-14T13:18:41.160Z,79.51
2022-11-14T13:21:44.811Z,79.73
2022-11-14T13:24:16.144Z,80.25
2022-11-14T13:26:48.668Z,80.66
2022-11-14T13:29:59.858Z,81.19
2022-11-14T13:33:04.957Z,81.46
2022-11-14T13:35:46.890Z,83.08
2022-11-14T13:38:51.984Z,84.71
2022-11-14T13:42:03.274Z,85.85
2022-11-14T13:44:57.540Z,86.62
2022-11-14T13:48:19.052Z,87.01
2022-11-14T13:50:50.811Z,87.64
2022-11-14T13:53:24.724Z,87.28
2022-11-14T13:56:02.234Z,87.41
2022-11-14T13:58:43.388Z,87.66
2022-11-14T14:01:25.782Z,87.99
2022-11-14T14:04:05.653Z,87.55
2022-11-14T14:06:48.537Z,87.52
2022-11-14T14:09:27.926Z,87.37
2022-11-14T14:12:11.468Z,87.40
2022-11-14T14:14:57.632Z,87.53
2022-11-14T14:17:34.420Z,87.77
2022-11-14T14:20:15.267Z,87.36
2022-11-14T14:22:52.684Z,87.04
2022-11-14T14:25:24.761Z,86.55
2022-11-14T14:28:06.938Z,86.64
2022-11-14T14:30:34.803Z,86.37
2022-11-14T14:33:13.955Z,86.55
2022-11-14T14:35:53.665Z,86.81
2022-11-14T14:38:25.931Z,87.15
2022-11-14T14:40:55.966Z,87.27
2022-11-14T14:43:32.487Z,86.85
2022-11-14T14:46:00.380Z,86.38
2022-11-14T14:48:31.650Z,86.50
2022-11-14T14:51:02.780Z,86.60
2022-11-14T14:53:32.821Z,86.21
2022-11-14T14:56:02.947Z,86.40
2022-11-14T14:58:34.039Z,85.71
2022-11-14T15:01:05.903Z,85.79
2022-11-14T15:03:38.495Z,86.65
2022-11-14T15:06:09.329Z,86.58
2022-11-14T15:08:39.239Z,86.48
2022-11-14T15:11:07.790Z,86.49
2022-11-14T15:13:38.590Z,86.63
2022-11-14T15:16:07.691Z,86.77
2022-11-14T15:18:35.865Z,86.62
2022-11-14T15:21:17.828Z,86.61
2022-11-14T15:23:45.786Z,86.56
2022-11-14T15:26:17.119Z,86.44
2022-11-14T15:28:46.506Z,86.47
2022-11-14T15:31:19.590Z,86.46
2022-11-14T15:34:00.937Z,86.11
2022-11-14T15:36:28.842Z,86.33
2022-11-14T15:39:01.181Z,86.66
2022-11-14T15:41:30.249Z,86.37
2022-11-14T15:44:05.808Z,86.28
2022-11-14T15:46:47.106Z,86.37
2022-11-14T15:49:21.986Z,86.49
2022-11-14T15:51:52.999Z,86.20
2022-11-14T15:54:27.200Z,86.02
2022-11-14T15:56:56.719Z,86.16
2022-11-14T15:59:26.611Z,86.10
2022-11-14T16:01:59.078Z,85.46
2022-11-14T16:04:31.946Z,86.50
2022-11-14T16:06:59.672Z,86.20
2022-11-14T16:09:27.343Z,86.20
2022-11-14T16:11:55.001Z,86.12
2022-11-14T16:14:22.587Z,86.18
2022-11-14T16:16:51.527Z,85.95
2022-11-14T16:19:19.169Z,86.35
2022-11-14T16:21:46.741Z,86.52
2022-11-14T16:24:17.846Z,86.82
2022-11-14T16:26:45.729Z,87.32
2022-11-14T16:29:13.627Z,87.21
2022-11-14T16:31:42.979Z,87.03
2022-11-14T16:34:17.757Z,87.21
2022-11-14T16:36:46.038Z,87.43
2022-11-14T16:39:14.107Z,87.43
2022-11-14T16:41:42.473Z,87.58
2022-11-14T16:44:15.466Z,87.61
2022-11-14T16:46:43.667Z,88.02
2022-11-14T16:49:14.986Z,88.03
2022-11-14T16:51:48.212Z,88.35
2022-11-14T16:54:17.862Z,88.51
2022-11-14T16:56:45.576Z,88.71
2022-11-14T16:59:13.686Z,88.97
2022-11-14T17:01:42.804Z,88.64
2022-11-14T17:04:10.608Z,88.78
2022-11-14T17:06:39.937Z,89.21
2022-11-14T17:09:07.734Z,88.88
2022-11-14T17:11:35.531Z,89.41
2022-11-14T17:14:03.309Z,89.00
2022-11-14T17:16:31.370Z,88.87
2022-11-14T17:19:04.582Z,88.80
2022-11-14T17:21:35.288Z,89.07
2022-11-14T17:24:04.625Z,88.96
2022-11-14T17:26:32.295Z,89.30
2022-11-14T17:28:59.981Z,89.17
2022-11-14T17:31:38.440Z,89.24
2022-11-14T17:34:32.616Z,89.36
2022-11-14T17:37:00.761Z,89.10
2022-11-14T17:39:42.402Z,89.07
2022-11-14T17:42:09.951Z,89.13
2022-11-14T17:44:37.595Z,88.52
2022-11-14T17:47:05.666Z,88.54
2022-11-14T17:49:36.229Z,88.73
2022-11-14T17:52:04.095Z,88.51
2022-11-14T17:54:37.692Z,88.25
2022-11-14T17:57:05.477Z,88.30
2022-11-14T17:59:33.412Z,88.23
2022-11-14T18:02:02.081Z,87.98
2022-11-14T18:04:31.067Z,87.82
2022-11-14T18:06:58.773Z,87.72
2022-11-14T18:09:29.397Z,87.38
2022-11-14T18:11:58.444Z,87.23
2022-11-14T18:14:26.147Z,87.25
2022-11-14T18:19:42.238Z,87.14
2022-11-14T18:22:10.224Z,86.90
2022-11-14T18:24:37.888Z,86.65
2022-11-14T18:27:07.116Z,86.33
2022-11-14T18:29:34.881Z,86.11
2022-11-14T18:32:02.793Z,86.15
2022-11-14T18:34:31.739Z,86.48
2022-11-14T18:36:59.913Z,85.72
2022-11-14T18:39:28.940Z,85.15
2022-11-14T18:41:59.791Z,84.84
2022-11-14T18:44:29.926Z,84.74
2022-11-14T18:46:58.087Z,84.88
2022-11-14T18:49:28.365Z,85.00
2022-11-14T18:51:57.356Z,84.32
2022-11-14T18:54:25.021Z,84.46
2022-11-14T18:56:52.829Z,84.11
2022-11-14T18:59:21.911Z,84.07
2022-11-14T19:01:51.980Z,83.83
2022-11-14T19:04:19.697Z,83.77
2022-11-14T19:06:47.493Z,83.44
2022-11-14T19:09:18.299Z,83.67
2022-11-14T19:12:03.483Z,83.49
2022-11-14T19:14:31.127Z,83.46
2022-11-14T19:17:00.732Z,83.18
2022-11-14T19:19:28.419Z,83.48
2022-11-14T19:21:56.324Z,83.09
2022-11-14T19:24:25.186Z,82.77
2022-11-14T19:26:54.107Z,82.94
2022-11-14T19:29:21.900Z,83.11
2022-11-14T19:31:49.576Z,83.07
2022-11-14T19:34:20.530Z,83.07
2022-11-14T19:37:04.780Z,82.90
2022-11-14T19:39:36.238Z,83.19
2022-11-14T19:42:03.833Z,83.39
2022-11-14T19:44:31.378Z,83.63
2022-11-14T19:46:59.179Z,83.72
2022-11-14T19:49:32.217Z,83.23
2022-11-14T19:52:00.851Z,83.70
2022-11-14T19:54:28.458Z,83.64
2022-11-14T19:56:57.601Z,84.00
2022-11-14T19:59:27.883Z,83.50
2022-11-14T20:01:56.040Z,83.43
2022-11-14T20:04:23.941Z,83.27
2022-11-14T20:07:02.676Z,83.48
2022-11-14T20:09:30.749Z,84.24
2022-11-14T20:12:00.017Z,84.04
2022-11-14T20:14:27.749Z,84.33
2022-11-14T20:16:55.595Z,84.57
2022-11-14T20:19:23.156Z,84.98
2022-11-14T20:21:50.734Z,84.92
2022-11-14T20:24:22.511Z,85.16
2022-11-14T20:27:00.283Z,85.43
2022-11-14T20:29:32.537Z,85.13
2022-11-14T20:32:00.937Z,85.61
2022-11-14T20:34:40.483Z,85.79
2022-11-14T20:37:12.039Z,86.08
2022-11-14T20:39:43.593Z,86.47
2022-11-14T20:42:14.232Z,86.60
2022-11-14T20:44:44.132Z,86.31
2022-11-14T20:47:11.808Z,86.36
2022-11-14T20:49:39.654Z,86.46
2022-11-14T20:52:07.329Z,86.63
2022-11-14T20:54:35.255Z,86.98
2022-11-14T20:57:04.304Z,87.53
2022-11-14T20:59:31.959Z,87.41
2022-11-14T21:01:59.653Z,87.33
2022-11-14T21:04:27.327Z,88.21
2022-11-14T21:06:54.994Z,88.23
2022-11-14T21:09:22.722Z,88.20
2022-11-14T21:11:50.389Z,88.49
2022-11-14T21:14:19.558Z,88.60
2022-11-14T21:16:47.377Z,88.45
2022-11-14T21:19:16.099Z,88.62
2022-11-14T21:21:43.886Z,88.77
2022-11-14T21:24:11.782Z,89.05
2022-11-14T21:26:40.831Z,89.11
2022-11-14T21:29:11.350Z,89.43
2022-11-14T21:31:42.410Z,89.53
2022-11-14T21:34:13.495Z,89.80
2022-11-14T21:36:46.340Z,90.11
2022-11-14T21:39:16.708Z,89.64
2022-11-14T21:41:45.841Z,89.59
2022-11-14T21:44:17.691Z,90.18
2022-11-14T21:46:48.496Z,89.70
2022-11-14T21:49:16.418Z,89.61
2022-11-14T21:51:44.607Z,89.42
2022-11-14T21:54:13.194Z,89.92
2022-11-14T21:56:40.776Z,89.43
2022-11-14T21:59:15.301Z,89.43
2022-11-14T22:02:03.270Z,89.40
2022-11-14T22:04:34.049Z,89.45
2022-11-14T22:07:03.743Z,89.33
2022-11-14T22:09:31.780Z,89.17
2022-11-14T22:12:00.462Z,89.00
2022-11-14T22:14:29.191Z,88.74
2022-11-14T22:16:57.791Z,88.65
2022-11-14T22:19:25.801Z,88.19
2022-11-14T22:21:55.127Z,87.99
2022-11-14T22:24:24.434Z,87.89
2022-11-14T22:26:52.229Z,87.54
2022-11-14T22:29:19.820Z,87.64
2022-11-14T22:31:47.470Z,87.73
2022-11-14T22:34:15.150Z,87.55
2022-11-14T22:36:42.917Z,87.65
2022-11-14T22:39:14.225Z,87.18
2022-11-14T22:41:42.198Z,87.04
2022-11-14T22:44:09.829Z,86.68
2022-11-14T22:46:37.601Z,86.67
2022-11-14T22:49:05.646Z,86.76
2022-11-14T22:51:33.376Z,87.11
2022-11-14T22:54:01.077Z,87.41
2022-11-14T22:56:30.748Z,87.79
2022-11-14T22:59:00.554Z,87.77
2022-11-14T23:01:31.099Z,87.75
2022-11-14T23:04:00.936Z,87.97
2022-11-14T23:06:29.643Z,88.16
2022-11-14T23:08:57.639Z,87.99
2022-11-14T23:11:27.259Z,88.44
2022-11-14T23:13:58.573Z,88.58
2022-11-14T23:16:30.511Z,89.05
2022-11-14T23:19:00.329Z,89.13
2022-11-14T23:21:31.077Z,89.43
2022-11-14T23:24:00.212Z,89.36
2022-11-14T23:26:29.422Z,90.02
2022-11-14T23:29:00.716Z,89.87
2022-11-14T23:31:28.504Z,90.01
2022-11-14T23:33:58.286Z,90.24
2022-11-14T23:36:26.292Z,90.47
2022-11-14T23:38:54.161Z,90.84
2022-11-14T23:41:24.604Z,90.55
2022-11-14T23:43:53.992Z,90.61
2022-11-14T23:46:27.998Z,91.22
2022-11-14T23:48:56.063Z,91.50
2022-11-14T23:51:23.769Z,92.21
2022-11-14T23:53:51.934Z,92.49
2022-11-14T23:56:19.571Z,92.34
2022-11-14T23:58:48.335Z,92.87
